createdAt,value
2023-04-26T00:00:30.586Z,450.8462
2023-04-26T00:01:31.597Z,450.0000
2023-04-26T00:02:32.826Z,449.7692
2023-04-26T00:03:33.827Z,449.0769
2023-04-26T00:04:34.910Z,447.4615
2023-04-26T00:05:35.830Z,448.9231
2023-04-26T00:06:36.828Z,450.0000
2023-04-26T00:07:37.898Z,449.1538
2023-04-26T00:08:38.893Z,448.6154
2023-04-26T00:09:39.988Z,447.1538
2023-04-26T00:10:40.983Z,447.7692
2023-04-26T00:11:42.092Z,445.3077
2023-04-26T00:12:43.064Z,446.2308
2023-04-26T00:13:44.134Z,447.1538
2023-04-26T00:14:45.211Z,449.1538
2023-04-26T00:15:46.205Z,449.9231
2023-04-26T00:16:47.411Z,448.6923
2023-04-26T00:17:48.339Z,448.9231
2023-04-26T00:18:49.374Z,450.7692
2023-04-26T00:19:50.407Z,449.4615
2023-04-26T00:20:51.445Z,448.4615
2023-04-26T00:21:52.485Z,447.5385
2023-04-26T00:22:53.545Z,448.2308
2023-04-26T00:23:54.592Z,450.7692
2023-04-26T00:24:55.651Z,451.6154
2023-04-26T00:25:56.649Z,452.4615
2023-04-26T00:26:57.682Z,451.8462
2023-04-26T00:27:58.730Z,450.5385
2023-04-26T00:28:59.738Z,451.1538
2023-04-26T00:30:00.847Z,451.0769
2023-04-26T00:31:01.875Z,450.6154
2023-04-26T00:32:02.948Z,448.7692
2023-04-26T00:33:03.990Z,446.1538
2023-04-26T00:34:05.006Z,448.4615
2023-04-26T00:35:06.087Z,449.0000
2023-04-26T00:36:07.065Z,448.4615
2023-04-26T00:37:08.108Z,446.5385
2023-04-26T00:38:09.162Z,450.1538
2023-04-26T00:39:10.223Z,452.1538
2023-04-26T00:40:11.316Z,452.6923
2023-04-26T00:41:12.303Z,452.3077
2023-04-26T00:42:13.347Z,453.1538
2023-04-26T00:43:14.391Z,454.5385
2023-04-26T00:44:15.432Z,455.8462
2023-04-26T00:45:16.516Z,455.7692
2023-04-26T00:46:17.581Z,455.5385
2023-04-26T00:47:18.576Z,454.9231
2023-04-26T00:48:19.608Z,455.0000
2023-04-26T00:49:20.641Z,455.0000
2023-04-26T00:50:21.760Z,454.6923
2023-04-26T00:51:22.729Z,453.9231
2023-04-26T00:52:23.779Z,449.6923
2023-04-26T00:53:24.809Z,446.3077
2023-04-26T00:54:25.849Z,443.5385
2023-04-26T00:55:26.958Z,441.4615
2023-04-26T00:56:27.965Z,446.5385
2023-04-26T00:57:28.974Z,448.6154
2023-04-26T00:58:30.050Z,449.0000
2023-04-26T00:59:31.091Z,451.1538
2023-04-26T01:00:32.148Z,451.3077
2023-04-26T01:01:33.175Z,449.4615
2023-04-26T01:02:34.230Z,449.3077
2023-04-26T01:03:35.305Z,449.8462
2023-04-26T01:04:36.346Z,449.7692
2023-04-26T01:05:37.363Z,449.5385
2023-04-26T01:06:38.350Z,449.3846
2023-04-26T01:07:39.393Z,450.0000
2023-04-26T01:08:40.429Z,450.0000
2023-04-26T01:09:41.466Z,451.1538
2023-04-26T01:10:42.548Z,450.7692
2023-04-26T01:11:43.710Z,450.0000
2023-04-26T01:12:44.586Z,450.4615
2023-04-26T01:13:45.650Z,450.6923
2023-04-26T01:14:46.693Z,451.0769
2023-04-26T01:15:47.767Z,452.6923
2023-04-26T01:16:48.854Z,452.5385
2023-04-26T01:17:49.855Z,451.1538
2023-04-26T01:18:50.972Z,451.0769
2023-04-26T01:19:51.884Z,450.0000
2023-04-26T01:20:52.957Z,451.9231
2023-04-26T01:21:53.944Z,451.7692
2023-04-26T01:22:55.015Z,448.6923
2023-04-26T01:23:56.047Z,447.2308
2023-04-26T01:24:57.094Z,446.0769
2023-04-26T01:25:58.154Z,445.1538
2023-04-26T01:26:59.154Z,448.1538
2023-04-26T01:28:00.212Z,447.3846
2023-04-26T01:29:01.287Z,447.0000
2023-04-26T01:30:02.306Z,446.6923
2023-04-26T01:31:03.418Z,447.6923
2023-04-26T01:32:04.413Z,449.9231
2023-04-26T01:33:05.496Z,449.1538
2023-04-26T01:34:06.484Z,447.2308
2023-04-26T01:35:07.562Z,448.9231
2023-04-26T01:36:08.585Z,450.0000
2023-04-26T01:37:09.604Z,454.3077
2023-04-26T01:38:10.654Z,457.2308
2023-04-26T01:39:11.696Z,456.0769
2023-04-26T01:40:12.752Z,455.0000
2023-04-26T01:41:13.820Z,455.3077
2023-04-26T01:42:14.813Z,455.0000
2023-04-26T01:43:15.853Z,453.4615
2023-04-26T01:44:16.903Z,451.9231
2023-04-26T01:45:17.959Z,453.2308
2023-04-26T01:46:19.077Z,454.6154
2023-04-26T01:47:20.041Z,455.6154
2023-04-26T01:48:21.086Z,453.9231
2023-04-26T01:49:22.135Z,454.0000
2023-04-26T01:50:23.176Z,450.9231
2023-04-26T01:51:24.250Z,451.0000
2023-04-26T01:52:25.260Z,452.3077
2023-04-26T01:53:26.302Z,453.3077
2023-04-26T01:54:27.340Z,453.3077
2023-04-26T01:55:28.426Z,452.6154
2023-04-26T01:56:29.478Z,453.9231
2023-04-26T01:57:30.482Z,453.3846
2023-04-26T01:58:31.544Z,452.2308
2023-04-26T01:59:32.573Z,451.5385
2023-04-26T02:00:33.623Z,452.1538
2023-04-26T02:01:34.730Z,452.7692
2023-04-26T02:02:35.764Z,454.3077
2023-04-26T02:03:36.859Z,453.2308
2023-04-26T02:04:37.843Z,454.3846
2023-04-26T02:05:38.822Z,455.0769
2023-04-26T02:06:39.926Z,454.9231
2023-04-26T02:07:40.923Z,454.0769
2023-04-26T02:08:41.961Z,453.1538
2023-04-26T02:09:43.002Z,452.9231
2023-04-26T02:10:44.044Z,451.3077
2023-04-26T02:11:45.160Z,451.0000
2023-04-26T02:12:46.183Z,451.3846
2023-04-26T02:13:47.160Z,452.3077
2023-04-26T02:14:48.207Z,453.8462
2023-04-26T02:15:49.255Z,457.0769
2023-04-26T02:16:50.325Z,454.6923
2023-04-26T02:17:51.380Z,453.1538
2023-04-26T02:18:52.513Z,453.1538
2023-04-26T02:19:53.419Z,452.6923
2023-04-26T02:20:54.460Z,452.9231
2023-04-26T02:21:55.570Z,453.0000
2023-04-26T02:22:56.579Z,454.6154
2023-04-26T02:23:57.596Z,456.3846
2023-04-26T02:24:58.650Z,456.3077
2023-04-26T02:25:59.655Z,455.9231
2023-04-26T02:27:00.706Z,455.2308
2023-04-26T02:28:01.791Z,454.0000
2023-04-26T02:29:02.793Z,455.0769
2023-04-26T02:30:03.859Z,454.0769
2023-04-26T02:31:04.953Z,452.7692
2023-04-26T02:32:05.964Z,452.2308
2023-04-26T02:33:07.076Z,453.8462
2023-04-26T02:34:08.044Z,455.6923
2023-04-26T02:35:09.085Z,455.0000
2023-04-26T02:36:10.136Z,454.2308
2023-04-26T02:37:11.239Z,456.3077
2023-04-26T02:38:12.226Z,456.6154
2023-04-26T02:39:13.229Z,457.7692
2023-04-26T02:40:14.246Z,455.7692
2023-04-26T02:41:15.306Z,456.0769
2023-04-26T02:42:16.358Z,457.7692
2023-04-26T02:43:17.449Z,457.6154
2023-04-26T02:44:18.446Z,457.3077
2023-04-26T02:45:19.488Z,457.9231
2023-04-26T02:46:20.632Z,458.1538
2023-04-26T02:47:21.679Z,458.3846
2023-04-26T02:48:22.737Z,460.6154
2023-04-26T02:49:23.720Z,465.3077
2023-04-26T02:50:24.754Z,466.9231
2023-04-26T02:51:25.785Z,469.6923
2023-04-26T02:52:26.837Z,470.2308
2023-04-26T02:53:27.908Z,470.9231
2023-04-26T02:54:28.934Z,472.8462
2023-04-26T02:55:29.980Z,473.3077
2023-04-26T02:56:31.055Z,473.3846
2023-04-26T02:57:32.124Z,473.5385
2023-04-26T02:58:33.171Z,472.9231
2023-04-26T02:59:34.194Z,474.2308
2023-04-26T03:00:35.333Z,476.3077
2023-04-26T03:01:36.328Z,477.8462
2023-04-26T03:02:37.399Z,478.3077
2023-04-26T03:03:38.455Z,480.7692
2023-04-26T03:04:39.397Z,481.9231
2023-04-26T03:05:40.421Z,485.0000
2023-04-26T03:06:41.480Z,488.5385
2023-04-26T03:07:42.495Z,489.0769
2023-04-26T03:08:43.577Z,487.5385
2023-04-26T03:09:44.572Z,486.0769
2023-04-26T03:10:45.623Z,486.0000
2023-04-26T03:11:48.862Z,483.6923
2023-04-26T03:12:47.713Z,483.3846
2023-04-26T03:13:48.817Z,484.2308
2023-04-26T03:14:49.772Z,484.3077
2023-04-26T03:15:50.811Z,485.0769
2023-04-26T03:16:51.903Z,484.6154
2023-04-26T03:17:52.939Z,484.6923
2023-04-26T03:18:54.110Z,485.6154
2023-04-26T03:19:54.965Z,484.4615
2023-04-26T03:20:56.125Z,482.9231
2023-04-26T03:21:57.152Z,482.4615
2023-04-26T03:22:58.223Z,481.5385
2023-04-26T03:23:59.266Z,482.6154
2023-04-26T03:25:00.250Z,483.5385
2023-04-26T03:26:01.311Z,483.3077
2023-04-26T03:27:02.365Z,484.2308
2023-04-26T03:28:03.417Z,485.0769
2023-04-26T03:29:04.507Z,486.8462
2023-04-26T03:30:05.512Z,486.3077
2023-04-26T03:31:06.590Z,487.7692
2023-04-26T03:32:07.634Z,488.1538
2023-04-26T03:33:08.667Z,486.8462
2023-04-26T03:34:09.702Z,485.5385
2023-04-26T03:35:10.705Z,483.3077
2023-04-26T03:36:11.748Z,482.3077
2023-04-26T03:37:12.797Z,482.6154
2023-04-26T03:38:13.832Z,482.0000
2023-04-26T03:39:14.912Z,482.8462
2023-04-26T03:40:15.907Z,482.0000
2023-04-26T03:41:16.963Z,480.3846
2023-04-26T03:42:17.989Z,479.6154
2023-04-26T03:43:19.036Z,478.3846
2023-04-26T03:44:20.115Z,477.0769
2023-04-26T03:45:21.134Z,475.8462
2023-04-26T03:46:22.244Z,478.4615
2023-04-26T03:47:23.223Z,480.7692
2023-04-26T03:48:24.229Z,480.3077
2023-04-26T03:49:25.334Z,480.0769
2023-04-26T03:50:26.357Z,479.3846
2023-04-26T03:51:27.352Z,480.6154
2023-04-26T03:52:28.388Z,481.6923
2023-04-26T03:53:29.450Z,481.3846
2023-04-26T03:54:30.541Z,481.0769
2023-04-26T03:55:31.524Z,483.6923
2023-04-26T03:56:33.499Z,483.7692
2023-04-26T03:57:33.526Z,483.9231
2023-04-26T03:58:34.566Z,483.9231
2023-04-26T03:59:35.647Z,486.0769
2023-04-26T04:00:36.997Z,484.6923
2023-04-26T04:01:37.685Z,482.4615
2023-04-26T04:02:38.843Z,481.9231
2023-04-26T04:03:41.275Z,481.6923
2023-04-26T04:04:41.017Z,479.4615
2023-04-26T04:05:41.947Z,478.2308
2023-04-26T04:06:42.944Z,477.4615
2023-04-26T04:07:43.989Z,479.0769
2023-04-26T04:08:45.013Z,481.3846
2023-04-26T04:09:46.146Z,481.3077
2023-04-26T04:10:47.076Z,479.6923
2023-04-26T04:11:48.146Z,479.5385
2023-04-26T04:12:49.161Z,479.3846
2023-04-26T04:13:50.240Z,479.8462
2023-04-26T04:14:51.303Z,479.0769
2023-04-26T04:15:52.369Z,478.6154
2023-04-26T04:16:53.363Z,477.7692
2023-04-26T04:17:54.513Z,477.8462
2023-04-26T04:18:55.476Z,477.5385
2023-04-26T04:19:56.543Z,476.9231
2023-04-26T04:20:57.541Z,475.3077
2023-04-26T04:21:58.613Z,475.4615
2023-04-26T04:22:59.649Z,475.8462
2023-04-26T04:24:00.696Z,477.3846
2023-04-26T04:25:01.751Z,476.8462
2023-04-26T04:26:02.759Z,477.5385
2023-04-26T04:27:03.821Z,476.7692
2023-04-26T04:28:04.860Z,475.6154
2023-04-26T04:29:05.883Z,475.2308
2023-04-26T04:30:06.998Z,473.0769
2023-04-26T04:31:07.993Z,474.0000
2023-04-26T04:32:09.005Z,474.3077
2023-04-26T04:33:10.130Z,474.7692
2023-04-26T04:34:11.149Z,475.4615
2023-04-26T04:35:12.202Z,474.8462
2023-04-26T04:36:13.243Z,475.3077
2023-04-26T04:37:14.265Z,478.1538
2023-04-26T04:38:15.331Z,477.8462
2023-04-26T04:39:16.400Z,478.6923
2023-04-26T04:40:17.405Z,477.4615
2023-04-26T04:41:18.454Z,476.8462
2023-04-26T04:42:19.462Z,476.8462
2023-04-26T04:43:20.540Z,476.9231
2023-04-26T04:44:21.554Z,477.0000
2023-04-26T04:45:22.675Z,477.3846
2023-04-26T04:46:23.682Z,474.0769
2023-04-26T04:47:24.730Z,475.7692
2023-04-26T04:48:25.743Z,476.0000
2023-04-26T04:49:26.781Z,472.9231
2023-04-26T04:50:27.973Z,475.0000
2023-04-26T04:51:28.891Z,474.9231
2023-04-26T04:52:29.944Z,471.6923
2023-04-26T04:53:31.017Z,475.3077
2023-04-26T04:54:32.043Z,476.3077
2023-04-26T04:55:33.125Z,478.7692
2023-04-26T04:56:34.134Z,480.2308
2023-04-26T04:57:35.172Z,480.1538
2023-04-26T04:58:36.223Z,481.3077
2023-04-26T04:59:37.252Z,480.2308
2023-04-26T05:00:38.330Z,481.6923
2023-04-26T05:01:39.455Z,482.1538
2023-04-26T05:02:40.548Z,485.7692
2023-04-26T05:03:41.575Z,485.5385
2023-04-26T05:04:42.675Z,486.7692
2023-04-26T05:05:43.656Z,495.0769
2023-04-26T05:06:44.671Z,501.6154
2023-04-26T05:07:45.714Z,499.2308
2023-04-26T05:08:46.790Z,498.4615
2023-04-26T05:09:47.848Z,493.3846
2023-04-26T05:10:48.926Z,488.6923
2023-04-26T05:11:49.905Z,489.3846
2023-04-26T05:12:50.951Z,486.6154
2023-04-26T05:13:52.911Z,489.2308
2023-04-26T05:14:53.035Z,488.2308
2023-04-26T05:15:54.160Z,487.4615
2023-04-26T05:16:55.211Z,491.8462
2023-04-26T05:17:56.305Z,492.1538
2023-04-26T05:18:57.248Z,488.7692
2023-04-26T05:19:58.303Z,488.2308
2023-04-26T05:20:59.429Z,487.3077
2023-04-26T05:22:00.402Z,485.5385
2023-04-26T05:23:01.439Z,484.0769
2023-04-26T05:24:02.481Z,483.0000
2023-04-26T05:25:03.540Z,482.6923
2023-04-26T05:26:04.641Z,481.2308
2023-04-26T05:27:05.640Z,480.5385
2023-04-26T05:28:06.743Z,482.2308
2023-04-26T05:29:07.680Z,482.1538
2023-04-26T05:30:08.714Z,484.6154
2023-04-26T05:31:11.370Z,485.3846
2023-04-26T05:32:10.924Z,485.1538
2023-04-26T05:33:11.912Z,486.0000
2023-04-26T05:34:12.981Z,485.6923
2023-04-26T05:35:13.947Z,483.1538
2023-04-26T05:36:15.040Z,481.8462
2023-04-26T05:37:16.051Z,481.2308
2023-04-26T05:38:17.080Z,478.1538
2023-04-26T05:39:18.117Z,480.5385
2023-04-26T05:40:19.195Z,483.7692
2023-04-26T05:41:20.251Z,484.7692
2023-04-26T05:42:21.324Z,486.7692
2023-04-26T05:43:22.320Z,484.8462
2023-04-26T05:44:23.368Z,481.4615
2023-04-26T05:45:24.520Z,480.9231
2023-04-26T05:46:25.573Z,480.8462
2023-04-26T05:47:26.626Z,480.2308
2023-04-26T05:48:27.580Z,476.3846
2023-04-26T05:49:28.631Z,477.3077
2023-04-26T05:50:29.644Z,476.6154
2023-04-26T05:51:30.921Z,474.7692
2023-04-26T05:52:31.801Z,480.0769
2023-04-26T05:53:32.806Z,481.9231
2023-04-26T05:54:33.925Z,483.1538
2023-04-26T05:55:34.896Z,484.0000
2023-04-26T05:56:35.956Z,482.6154
2023-04-26T05:57:37.062Z,482.7692
2023-04-26T05:58:38.024Z,482.6154
2023-04-26T05:59:39.100Z,484.2308
2023-04-26T06:00:40.137Z,481.6923
2023-04-26T06:01:41.159Z,479.6154
2023-04-26T06:02:42.450Z,484.7692
2023-04-26T06:03:43.486Z,485.8462
2023-04-26T06:04:44.444Z,480.9231
2023-04-26T06:05:45.405Z,478.5385
2023-04-26T06:06:46.440Z,476.6923
2023-04-26T06:07:47.503Z,477.7692
2023-04-26T06:08:48.492Z,478.5385
2023-04-26T06:09:49.530Z,478.9231
2023-04-26T06:10:50.583Z,481.0769
2023-04-26T06:11:51.638Z,482.3077
2023-04-26T06:12:52.735Z,479.3846
2023-04-26T06:13:54.097Z,476.5385
2023-04-26T06:14:54.760Z,474.7692
2023-04-26T06:15:55.822Z,473.4615
2023-04-26T06:16:56.902Z,473.2308
2023-04-26T06:17:58.207Z,472.8462
2023-04-26T06:18:59.091Z,470.3077
2023-04-26T06:20:00.159Z,471.0000
2023-04-26T06:21:01.146Z,470.9231
2023-04-26T06:22:02.191Z,471.4615
2023-04-26T06:23:03.329Z,471.4615
2023-04-26T06:24:04.255Z,475.0769
2023-04-26T06:25:05.278Z,472.0769
2023-04-26T06:26:06.424Z,464.2308
2023-04-26T06:27:07.388Z,465.0000
2023-04-26T06:28:08.506Z,465.3077
2023-04-26T06:29:09.484Z,461.7692
2023-04-26T06:30:10.495Z,462.2308
2023-04-26T06:31:11.557Z,463.6923
2023-04-26T06:32:12.581Z,462.7692
2023-04-26T06:33:13.618Z,461.6154
2023-04-26T06:34:14.660Z,462.8462
2023-04-26T06:35:15.727Z,464.4615
2023-04-26T06:36:16.762Z,466.3077
2023-04-26T06:37:17.935Z,465.8462
2023-04-26T06:38:18.923Z,464.6154
2023-04-26T06:39:19.840Z,464.1538
2023-04-26T06:40:20.910Z,466.6154
2023-04-26T06:41:21.945Z,467.6154
2023-04-26T06:42:23.037Z,465.7692
2023-04-26T06:43:24.078Z,464.8462
2023-04-26T06:44:25.072Z,463.6154
2023-04-26T06:45:26.087Z,462.3077
2023-04-26T06:46:27.267Z,464.1538
2023-04-26T06:47:28.292Z,467.6923
2023-04-26T06:48:29.312Z,467.6154
2023-04-26T06:49:30.366Z,468.2308
2023-04-26T06:50:31.369Z,467.5385
2023-04-26T06:51:32.428Z,467.3077
2023-04-26T06:52:33.481Z,466.8462
2023-04-26T06:53:34.442Z,466.6923
2023-04-26T06:54:39.855Z,464.2308
2023-04-26T06:55:36.502Z,462.0000
2023-04-26T06:56:37.554Z,462.8462
2023-04-26T06:57:38.618Z,459.4615
2023-04-26T06:58:39.665Z,461.3846
2023-04-26T06:59:40.647Z,462.4615
2023-04-26T07:00:41.705Z,464.2308
2023-04-26T07:01:42.765Z,466.1538
2023-04-26T07:02:43.902Z,467.3077
2023-04-26T07:03:45.067Z,468.3077
2023-04-26T07:04:46.085Z,474.0000
2023-04-26T07:05:47.077Z,476.7692
2023-04-26T07:06:48.373Z,477.0000
2023-04-26T07:07:49.006Z,472.4615
2023-04-26T07:08:50.252Z,469.2308
2023-04-26T07:09:51.123Z,467.3846
2023-04-26T07:10:52.159Z,467.1538
2023-04-26T07:11:53.198Z,465.8462
2023-04-26T07:12:54.245Z,463.0769
2023-04-26T07:13:55.508Z,462.6923
2023-04-26T07:14:56.323Z,463.1538
2023-04-26T07:15:57.382Z,463.2308
2023-04-26T07:16:58.433Z,463.0769
2023-04-26T07:17:59.586Z,465.6923
2023-04-26T07:19:00.838Z,465.3846
2023-04-26T07:20:01.606Z,466.3077
2023-04-26T07:21:02.683Z,465.5385
2023-04-26T07:22:03.708Z,464.8462
2023-04-26T07:23:04.734Z,465.4615
2023-04-26T07:24:05.781Z,466.9231
2023-04-26T07:25:06.965Z,467.3077
2023-04-26T07:26:07.821Z,464.5385
2023-04-26T07:27:08.856Z,464.2308
2023-04-26T07:28:09.879Z,464.7692
2023-04-26T07:29:10.941Z,465.0769
2023-04-26T07:30:11.979Z,465.3077
2023-04-26T07:31:13.181Z,457.0769
2023-04-26T07:32:14.047Z,459.0769
2023-04-26T07:33:15.183Z,459.2308
2023-04-26T07:34:16.142Z,457.3846
2023-04-26T07:35:17.267Z,455.0769
2023-04-26T07:36:18.371Z,458.6923
2023-04-26T07:37:19.604Z,461.1538
2023-04-26T07:38:20.276Z,464.7692
2023-04-26T07:39:21.319Z,466.6154
2023-04-26T07:40:22.367Z,466.3846
2023-04-26T07:41:23.413Z,470.7692
2023-04-26T07:42:24.570Z,468.4615
2023-04-26T07:43:25.501Z,468.2308
2023-04-26T07:44:26.549Z,467.5385
2023-04-26T07:45:27.644Z,467.2308
2023-04-26T07:46:28.633Z,467.6923
2023-04-26T07:47:29.683Z,465.9231
2023-04-26T07:48:30.788Z,462.2308
2023-04-26T07:49:31.751Z,454.2308
2023-04-26T07:50:32.866Z,454.3077
2023-04-26T07:51:33.778Z,457.4615
2023-04-26T07:52:34.929Z,458.8462
2023-04-26T07:53:35.903Z,460.0769
2023-04-26T07:54:36.901Z,460.1538
2023-04-26T07:55:37.984Z,463.0769
2023-04-26T07:56:39.009Z,465.3077
2023-04-26T07:57:40.221Z,467.3077
2023-04-26T07:58:41.123Z,468.3077
2023-04-26T07:59:42.120Z,468.2308
2023-04-26T08:00:43.328Z,466.6154
2023-04-26T08:01:44.420Z,465.6154
2023-04-26T08:02:45.940Z,466.6923
2023-04-26T08:03:46.509Z,465.0769
2023-04-26T08:04:47.586Z,465.9231
2023-04-26T08:05:48.807Z,465.0769
2023-04-26T08:06:49.478Z,463.0000
2023-04-26T08:07:50.555Z,461.0000
2023-04-26T08:08:51.610Z,462.4615
2023-04-26T08:09:52.622Z,462.6154
2023-04-26T08:10:53.741Z,457.2308
2023-04-26T08:11:54.711Z,460.3077
2023-04-26T08:12:55.739Z,459.3846
2023-04-26T08:13:56.705Z,460.0769
2023-04-26T08:14:57.740Z,458.0769
2023-04-26T08:15:58.841Z,458.0769
2023-04-26T08:16:59.841Z,461.9231
2023-04-26T08:18:00.906Z,461.0769
2023-04-26T08:19:01.924Z,460.4615
2023-04-26T08:20:02.982Z,460.1538
2023-04-26T08:21:04.050Z,460.0000
2023-04-26T08:22:05.043Z,459.0000
2023-04-26T08:23:06.101Z,458.0000
2023-04-26T08:24:07.116Z,460.0769
2023-04-26T08:25:08.169Z,460.5385
2023-04-26T08:26:09.256Z,464.0000
2023-04-26T08:27:10.249Z,468.6923
2023-04-26T08:28:11.294Z,475.6154
2023-04-26T08:29:12.338Z,483.1538
2023-04-26T08:30:13.374Z,464.3846
2023-04-26T08:31:15.719Z,451.7692
2023-04-26T08:32:15.523Z,452.8462
2023-04-26T08:33:16.543Z,455.0000
2023-04-26T08:34:17.550Z,456.2308
2023-04-26T08:35:18.590Z,458.2308
2023-04-26T08:36:19.681Z,460.6154
2023-04-26T08:37:20.686Z,463.7692
2023-04-26T08:38:21.944Z,464.4615
2023-04-26T08:39:22.783Z,460.1538
2023-04-26T08:40:23.881Z,457.9231
2023-04-26T08:41:25.126Z,456.9231
2023-04-26T08:42:25.931Z,456.6923
2023-04-26T08:43:26.987Z,455.9231
2023-04-26T08:44:28.003Z,456.5385
2023-04-26T08:45:29.040Z,457.2308
2023-04-26T08:46:30.226Z,473.8462
2023-04-26T08:47:31.145Z,469.4615
2023-04-26T08:48:32.162Z,454.6154
2023-04-26T08:49:33.202Z,458.1538
2023-04-26T08:50:34.263Z,460.2308
2023-04-26T08:51:35.331Z,461.3846
2023-04-26T08:52:36.331Z,459.7692
2023-04-26T08:53:37.484Z,457.0000
2023-04-26T08:54:38.520Z,458.1538
2023-04-26T08:55:39.555Z,460.3846
2023-04-26T08:56:40.751Z,459.8462
2023-04-26T08:57:41.707Z,462.2308
2023-04-26T08:58:42.677Z,466.1538
2023-04-26T08:59:43.714Z,461.9231
2023-04-26T09:00:44.776Z,459.6923
2023-04-26T09:01:45.947Z,454.5385
2023-04-26T09:02:47.012Z,452.7692
2023-04-26T09:03:48.018Z,455.9231
2023-04-26T09:04:49.151Z,456.5385
2023-04-26T09:05:49.979Z,456.6154
2023-04-26T09:06:51.079Z,454.3077
2023-04-26T09:07:52.076Z,454.0769
2023-04-26T09:08:53.111Z,458.0769
2023-04-26T09:09:54.092Z,457.6923
2023-04-26T09:10:55.154Z,456.3846
2023-04-26T09:11:56.200Z,449.8462
2023-04-26T09:12:57.200Z,450.0000
2023-04-26T09:13:58.284Z,452.7692
2023-04-26T09:14:59.322Z,455.3077
2023-04-26T09:16:01.821Z,460.6923
2023-04-26T09:17:01.423Z,460.4615
2023-04-26T09:18:02.524Z,458.8462
2023-04-26T09:19:03.460Z,456.0769
2023-04-26T09:20:06.520Z,452.0769
2023-04-26T09:21:05.574Z,451.8462
2023-04-26T09:22:06.657Z,452.1538
2023-04-26T09:23:07.671Z,453.9231
2023-04-26T09:24:08.687Z,457.3846
2023-04-26T09:25:09.692Z,457.3077
2023-04-26T09:26:10.758Z,455.3846
2023-04-26T09:27:11.855Z,449.8462
2023-04-26T09:28:12.829Z,458.3077
2023-04-26T09:29:14.102Z,460.3846
2023-04-26T09:30:14.927Z,454.6154
2023-04-26T09:31:15.971Z,465.3077
2023-04-26T09:32:17.036Z,462.0769
2023-04-26T09:33:18.134Z,456.8462
2023-04-26T09:34:19.128Z,457.8462
2023-04-26T09:35:20.161Z,460.4615
2023-04-26T09:36:21.190Z,456.5385
2023-04-26T09:37:22.273Z,455.3077
2023-04-26T09:38:23.325Z,446.4615
2023-04-26T09:39:24.356Z,426.3077
2023-04-26T09:40:25.388Z,434.9231
2023-04-26T09:41:26.449Z,440.6923
2023-04-26T09:42:27.532Z,449.8462
2023-04-26T09:43:28.527Z,456.0000
2023-04-26T09:44:29.594Z,453.4615
2023-04-26T09:45:30.595Z,453.8462
2023-04-26T09:46:31.652Z,457.5385
2023-04-26T09:47:32.735Z,456.3077
2023-04-26T09:48:33.704Z,450.0769
2023-04-26T09:49:34.899Z,444.7692
2023-04-26T09:50:35.805Z,449.5385
2023-04-26T09:51:36.837Z,452.0000
2023-04-26T09:52:38.013Z,456.7692
2023-04-26T09:53:38.917Z,450.2308
2023-04-26T09:54:40.008Z,447.2308
2023-04-26T09:55:41.024Z,444.2308
2023-04-26T09:56:42.076Z,442.6154
2023-04-26T09:57:43.178Z,443.3077
2023-04-26T09:58:44.161Z,444.0000
2023-04-26T09:59:45.262Z,446.1538
2023-04-26T10:00:46.298Z,445.2308
2023-04-26T10:01:47.287Z,444.5385
2023-04-26T10:02:48.482Z,445.3077
2023-04-26T10:03:49.725Z,452.6154
2023-04-26T10:04:50.496Z,456.0000
2023-04-26T10:05:51.483Z,455.5385
2023-04-26T10:06:52.525Z,456.1538
2023-04-26T10:07:53.614Z,454.0000
2023-04-26T10:08:54.818Z,451.8462
2023-04-26T10:09:56.003Z,451.8462
2023-04-26T10:10:56.665Z,456.7692
2023-04-26T10:11:57.720Z,442.0769
2023-04-26T10:12:58.802Z,444.7692
2023-04-26T10:13:59.778Z,442.3077
2023-04-26T10:15:00.852Z,450.0769
2023-04-26T10:16:01.987Z,448.3846
2023-04-26T10:17:02.973Z,443.8462
2023-04-26T10:18:04.137Z,447.7692
2023-04-26T10:19:05.095Z,447.2308
2023-04-26T10:20:06.187Z,444.0000
2023-04-26T10:21:07.165Z,444.1538
2023-04-26T10:22:08.258Z,446.0000
2023-04-26T10:23:09.355Z,445.2308
2023-04-26T10:24:10.332Z,445.8462
2023-04-26T10:25:11.306Z,445.1538
2023-04-26T10:26:12.415Z,443.0000
2023-04-26T10:27:13.475Z,438.3846
2023-04-26T10:28:14.532Z,428.8462
2023-04-26T10:29:15.540Z,434.9231
2023-04-26T10:30:16.763Z,436.6923
2023-04-26T10:31:17.777Z,440.0000
2023-04-26T10:32:18.795Z,442.6923
2023-04-26T10:33:19.939Z,444.7692
2023-04-26T10:34:20.774Z,446.5385
2023-04-26T10:35:21.918Z,443.7692
2023-04-26T10:36:22.915Z,440.4615
2023-04-26T10:37:23.920Z,432.0769
2023-04-26T10:38:25.023Z,433.5385
2023-04-26T10:39:26.000Z,433.2308
2023-04-26T10:40:27.032Z,433.8462
2023-04-26T10:41:28.069Z,434.0000
2023-04-26T10:42:29.163Z,434.6154
2023-04-26T10:43:30.234Z,436.4615
2023-04-26T10:44:31.206Z,436.3077
2023-04-26T10:45:32.410Z,434.4615
2023-04-26T10:46:33.455Z,435.3077
2023-04-26T10:47:34.493Z,441.8462
2023-04-26T10:48:35.549Z,439.1538
2023-04-26T10:49:36.496Z,423.7692
2023-04-26T10:50:37.548Z,427.3077
2023-04-26T10:51:38.588Z,429.6923
2023-04-26T10:52:39.622Z,430.8462
2023-04-26T10:53:40.699Z,432.8462
2023-04-26T10:54:42.543Z,433.1538
2023-04-26T10:55:42.881Z,433.4615
2023-04-26T10:56:43.724Z,432.6923
2023-04-26T10:57:44.787Z,433.5385
2023-04-26T10:58:45.845Z,438.0000
2023-04-26T10:59:54.312Z,456.2308
2023-04-26T11:00:47.973Z,454.6923
2023-04-26T11:01:49.037Z,447.1538
2023-04-26T11:02:52.483Z,439.3846
2023-04-26T11:03:51.435Z,436.0769
2023-04-26T11:04:52.126Z,436.8462
2023-04-26T11:05:53.153Z,436.9231
2023-04-26T11:06:54.199Z,435.1538
2023-04-26T11:07:55.205Z,422.6154
2023-04-26T11:08:56.438Z,427.7692
2023-04-26T11:09:57.328Z,428.9231
2023-04-26T11:10:58.429Z,431.6923
2023-04-26T11:11:59.421Z,431.5385
2023-04-26T11:13:00.424Z,430.8462
2023-04-26T11:14:01.511Z,428.9231
2023-04-26T11:15:02.537Z,427.5385
2023-04-26T11:16:03.590Z,428.3077
2023-04-26T11:17:04.599Z,429.6154
2023-04-26T11:18:05.764Z,425.9231
2023-04-26T11:19:06.722Z,424.6923
2023-04-26T11:20:07.747Z,424.6923
2023-04-26T11:21:08.788Z,423.6923
2023-04-26T11:22:09.808Z,426.6923
2023-04-26T11:23:10.864Z,427.1538
2023-04-26T11:24:11.986Z,427.2308
2023-04-26T11:25:12.919Z,428.1538
2023-04-26T11:26:13.960Z,429.6154
2023-04-26T11:27:14.983Z,430.0769
2023-04-26T11:28:16.061Z,431.8462
2023-04-26T11:29:17.105Z,437.3077
2023-04-26T11:30:18.147Z,441.0769
2023-04-26T11:31:19.469Z,439.8462
2023-04-26T11:32:20.201Z,438.4615
2023-04-26T11:33:21.239Z,436.0000
2023-04-26T11:34:22.336Z,439.9231
2023-04-26T11:35:23.314Z,455.1538
2023-04-26T11:36:24.365Z,454.2308
2023-04-26T11:37:25.415Z,444.6154
2023-04-26T11:38:26.447Z,430.1538
2023-04-26T11:39:27.525Z,418.3846
2023-04-26T11:40:28.538Z,416.4615
2023-04-26T11:41:29.591Z,425.1538
2023-04-26T11:42:30.606Z,426.0769
2023-04-26T11:43:31.664Z,426.1538
2023-04-26T11:44:32.806Z,430.0000
2023-04-26T11:45:33.773Z,425.2308
2023-04-26T11:46:34.824Z,426.0769
2023-04-26T11:47:35.897Z,432.3077
2023-04-26T11:48:37.044Z,432.4615
2023-04-26T11:49:37.988Z,430.1538
2023-04-26T11:50:38.967Z,424.4615
2023-04-26T11:51:40.040Z,422.2308
2023-04-26T11:52:41.086Z,423.8462
2023-04-26T11:53:42.107Z,425.2308
2023-04-26T11:54:43.207Z,427.1538
2023-04-26T11:55:44.189Z,429.8462
2023-04-26T11:56:45.224Z,430.6923